Muleshoe, Texas
Current Conditions -  °F | °C
As of 2:15 PM on Thursday 23 Oct 2014 (Local Time) from KCVN Reporting Station
Clear Clear  
Wind Chill: 79°   Ceiling: Unl
Heat Index: 79°   Visibility: 10mi
Dew Point: 45°   Wind: 6mph
Humidity: 30%   Direction: 290°WNW
Pressure: 30.14"   Gusts: NA
Location:  34.23°N, 102.72°W
Report Text: KCVN 231915Z AUTO 29005KT 10SM CLR 26/07 A3014 RMK AO1
Loading
Personal Weather Stations






























Interactive Weather Map
Tropical Storm Tracking
New forecast layout! Learn more

10-Day Weather Forecast

Advertisements
Track Severe Weather on mobile